ブリッジタウン の空港の天気 - METARとTAF

グラントレー・アダムス国際空港 ( TBPB / BGI ) - バルバドス ブリッジタウン
飛行場実況気象(Metar)
観測時間09/25 15:00 AST (09/25 19:00 UTC)
風向・風速東南東 7m/s
視程10km以上
天気現象周辺でしゅう雨
少しの雲 雲底高度 430m
全天の4割程度の雲 雲底高度 490m
気温30℃
湿度70%
気圧1011hPa
METARTBPB 251900Z 11013KT 9999 VCSH FEW014CB SCT016 30/24 Q1011 NOSIG
過去の天気等 Google飛行場航空写真 Wunderground天気予報

過去48時間のMETAR

飛行場予報(TAF)
発表時間: 9/25 13:00 AST (9/25 17:00 UTC)
予報対象時間: 25日14時 AST ~ 26日14時 AST
風向・風速東 8m/s
視程10km以上
全天の4割程度の雲 雲底高度 550m
25日15時 AST ~ 25日18時 AST に一時的に
天気現象しゅう雨
TAF TBPB 251700Z 2518/2618 10015KT 9999 SCT018
TEMPO 2519/2522 SHRA